sensor_id;sensor_type;location;lat;lon;timestamp;P1;durP1;ratioP1;P2;durP2;ratioP2
69588;SDS011;56792;50.644;17.984;2023-12-20T00:00:55;21.60;;;12.60;;
69588;SDS011;56792;50.644;17.984;2023-12-20T00:03:26;21.90;;;12.20;;
69588;SDS011;56792;50.644;17.984;2023-12-20T00:05:57;23.30;;;12.20;;
69588;SDS011;56792;50.644;17.984;2023-12-20T00:08:28;21.80;;;11.90;;
69588;SDS011;56792;50.644;17.984;2023-12-20T00:10:59;21.10;;;11.70;;
69588;SDS011;56792;50.644;17.984;2023-12-20T00:13:30;21.00;;;12.70;;
69588;SDS011;56792;50.644;17.984;2023-12-20T00:16:01;25.70;;;14.00;;
69588;SDS011;56792;50.644;17.984;2023-12-20T00:18:33;23.60;;;11.70;;
69588;SDS011;56792;50.644;17.984;2023-12-20T00:21:04;19.60;;;11.00;;
69588;SDS011;56792;50.644;17.984;2023-12-20T00:23:35;21.40;;;12.30;;
69588;SDS011;56792;50.644;17.984;2023-12-20T00:26:06;19.10;;;11.80;;
69588;SDS011;56792;50.644;17.984;2023-12-20T00:28:37;23.20;;;12.10;;
69588;SDS011;56792;50.644;17.984;2023-12-20T00:31:08;19.80;;;11.60;;
69588;SDS011;56792;50.644;17.984;2023-12-20T00:33:39;21.10;;;11.70;;
69588;SDS011;56792;50.644;17.984;2023-12-20T00:36:11;19.80;;;12.10;;
69588;SDS011;56792;50.644;17.984;2023-12-20T00:38:42;19.50;;;11.30;;
69588;SDS011;56792;50.644;17.984;2023-12-20T00:41:13;22.60;;;11.80;;
69588;SDS011;56792;50.644;17.984;2023-12-20T00:43:44;22.60;;;12.50;;
69588;SDS011;56792;50.644;17.984;2023-12-20T00:46:15;26.30;;;14.60;;
69588;SDS011;56792;50.644;17.984;2023-12-20T00:48:47;26.50;;;14.00;;
69588;SDS011;56792;50.644;17.984;2023-12-20T00:51:18;34.00;;;17.00;;
69588;SDS011;56792;50.644;17.984;2023-12-20T00:53:50;34.00;;;19.20;;
69588;SDS011;56792;50.644;17.984;2023-12-20T00:56:23;41.20;;;19.30;;
69588;SDS011;56792;50.644;17.984;2023-12-20T00:58:54;39.20;;;19.60;;
69588;SDS011;56792;50.644;17.984;2023-12-20T01:01:25;38.70;;;20.20;;
69588;SDS011;56792;50.644;17.984;2023-12-20T01:03:55;42.50;;;20.20;;
69588;SDS011;56792;50.644;17.984;2023-12-20T01:06:27;36.70;;;18.00;;
69588;SDS011;56792;50.644;17.984;2023-12-20T01:08:57;35.40;;;16.90;;
69588;SDS011;56792;50.644;17.984;2023-12-20T01:11:29;36.70;;;18.90;;
69588;SDS011;56792;50.644;17.984;2023-12-20T01:14:00;36.30;;;17.40;;
69588;SDS011;56792;50.644;17.984;2023-12-20T01:16:31;39.40;;;17.50;;
69588;SDS011;56792;50.644;17.984;2023-12-20T01:19:02;38.30;;;21.10;;
69588;SDS011;56792;50.644;17.984;2023-12-20T01:21:33;32.30;;;17.20;;
69588;SDS011;56792;50.644;17.984;2023-12-20T01:24:04;26.00;;;14.50;;
69588;SDS011;56792;50.644;17.984;2023-12-20T01:26:35;20.00;;;11.80;;
69588;SDS011;56792;50.644;17.984;2023-12-20T01:29:06;20.10;;;11.50;;
69588;SDS011;56792;50.644;17.984;2023-12-20T01:31:37;17.90;;;9.80;;
69588;SDS011;56792;50.644;17.984;2023-12-20T01:34:08;17.70;;;9.50;;
69588;SDS011;56792;50.644;17.984;2023-12-20T01:36:39;21.30;;;10.90;;
69588;SDS011;56792;50.644;17.984;2023-12-20T01:39:10;15.00;;;9.30;;
69588;SDS011;56792;50.644;17.984;2023-12-20T01:41:41;14.00;;;8.40;;
69588;SDS011;56792;50.644;17.984;2023-12-20T01:44:13;14.80;;;8.50;;
69588;SDS011;56792;50.644;17.984;2023-12-20T01:46:44;12.60;;;7.20;;
69588;SDS011;56792;50.644;17.984;2023-12-20T01:49:16;12.00;;;7.10;;
69588;SDS011;56792;50.644;17.984;2023-12-20T01:51:48;11.30;;;6.60;;
69588;SDS011;56792;50.644;17.984;2023-12-20T01:54:20;11.70;;;6.90;;
69588;SDS011;56792;50.644;17.984;2023-12-20T01:56:52;12.70;;;6.70;;
69588;SDS011;56792;50.644;17.984;2023-12-20T01:59:23;13.60;;;7.40;;
69588;SDS011;56792;50.644;17.984;2023-12-20T02:01:55;11.90;;;6.80;;
69588;SDS011;56792;50.644;17.984;2023-12-20T02:04:26;14.70;;;7.20;;
69588;SDS011;56792;50.644;17.984;2023-12-20T02:06:59;10.90;;;6.30;;
69588;SDS011;56792;50.644;17.984;2023-12-20T02:09:31;10.40;;;5.60;;
69588;SDS011;56792;50.644;17.984;2023-12-20T02:12:03;9.90;;;4.80;;
69588;SDS011;56792;50.644;17.984;2023-12-20T02:14:34;7.10;;;5.00;;
69588;SDS011;56792;50.644;17.984;2023-12-20T02:17:05;8.70;;;4.90;;
69588;SDS011;56792;50.644;17.984;2023-12-20T02:19:36;8.40;;;5.30;;
69588;SDS011;56792;50.644;17.984;2023-12-20T02:22:09;7.20;;;4.90;;
69588;SDS011;56792;50.644;17.984;2023-12-20T02:24:41;7.60;;;4.60;;
69588;SDS011;56792;50.644;17.984;2023-12-20T02:27:12;9.30;;;5.30;;
69588;SDS011;56792;50.644;17.984;2023-12-20T02:29:44;7.10;;;3.90;;
69588;SDS011;56792;50.644;17.984;2023-12-20T02:32:18;7.40;;;4.30;;
69588;SDS011;56792;50.644;17.984;2023-12-20T02:34:49;6.30;;;4.20;;
69588;SDS011;56792;50.644;17.984;2023-12-20T02:37:21;7.50;;;4.20;;
69588;SDS011;56792;50.644;17.984;2023-12-20T02:39:52;7.00;;;4.40;;
69588;SDS011;56792;50.644;17.984;2023-12-20T02:42:23;5.90;;;4.20;;
69588;SDS011;56792;50.644;17.984;2023-12-20T02:44:54;7.60;;;4.20;;
69588;SDS011;56792;50.644;17.984;2023-12-20T02:47:25;6.60;;;4.50;;
69588;SDS011;56792;50.644;17.984;2023-12-20T02:49:57;7.10;;;4.80;;
69588;SDS011;56792;50.644;17.984;2023-12-20T02:52:28;6.70;;;4.40;;
69588;SDS011;56792;50.644;17.984;2023-12-20T02:54:59;6.10;;;4.20;;
69588;SDS011;56792;50.644;17.984;2023-12-20T02:57:30;7.30;;;4.30;;
69588;SDS011;56792;50.644;17.984;2023-12-20T03:00:05;7.40;;;5.00;;
69588;SDS011;56792;50.644;17.984;2023-12-20T03:02:37;7.60;;;5.00;;
69588;SDS011;56792;50.644;17.984;2023-12-20T03:05:09;8.20;;;5.20;;
69588;SDS011;56792;50.644;17.984;2023-12-20T03:07:40;8.20;;;4.90;;
69588;SDS011;56792;50.644;17.984;2023-12-20T03:10:11;7.00;;;4.80;;
69588;SDS011;56792;50.644;17.984;2023-12-20T03:12:42;8.00;;;5.40;;
69588;SDS011;56792;50.644;17.984;2023-12-20T03:15:13;7.90;;;5.10;;
69588;SDS011;56792;50.644;17.984;2023-12-20T03:17:44;10.60;;;6.30;;
69588;SDS011;56792;50.644;17.984;2023-12-20T03:20:15;11.20;;;6.10;;
69588;SDS011;56792;50.644;17.984;2023-12-20T03:22:46;8.50;;;5.40;;
69588;SDS011;56792;50.644;17.984;2023-12-20T03:25:17;7.70;;;5.00;;
69588;SDS011;56792;50.644;17.984;2023-12-20T03:27:48;8.80;;;5.30;;
69588;SDS011;56792;50.644;17.984;2023-12-20T03:30:19;11.40;;;6.30;;
69588;SDS011;56792;50.644;17.984;2023-12-20T03:32:50;8.50;;;5.10;;
69588;SDS011;56792;50.644;17.984;2023-12-20T03:35:21;9.10;;;5.90;;
69588;SDS011;56792;50.644;17.984;2023-12-20T03:37:52;8.40;;;6.10;;
69588;SDS011;56792;50.644;17.984;2023-12-20T03:40:25;7.50;;;5.50;;
69588;SDS011;56792;50.644;17.984;2023-12-20T03:42:56;8.50;;;5.10;;
69588;SDS011;56792;50.644;17.984;2023-12-20T03:45:27;9.50;;;5.70;;
69588;SDS011;56792;50.644;17.984;2023-12-20T03:47:58;8.90;;;5.40;;
69588;SDS011;56792;50.644;17.984;2023-12-20T03:50:29;8.50;;;5.30;;
69588;SDS011;56792;50.644;17.984;2023-12-20T03:53:00;8.90;;;5.50;;
69588;SDS011;56792;50.644;17.984;2023-12-20T03:55:32;8.30;;;5.50;;
69588;SDS011;56792;50.644;17.984;2023-12-20T03:58:03;8.10;;;5.30;;
69588;SDS011;56792;50.644;17.984;2023-12-20T04:00:34;8.90;;;5.50;;
69588;SDS011;56792;50.644;17.984;2023-12-20T04:03:05;8.50;;;5.60;;
69588;SDS011;56792;50.644;17.984;2023-12-20T04:05:37;8.80;;;5.70;;
69588;SDS011;56792;50.644;17.984;2023-12-20T04:08:08;10.50;;;6.00;;
69588;SDS011;56792;50.644;17.984;2023-12-20T04:10:40;11.20;;;5.90;;
69588;SDS011;56792;50.644;17.984;2023-12-20T04:13:11;8.60;;;5.40;;
69588;SDS011;56792;50.644;17.984;2023-12-20T04:15:42;10.20;;;5.80;;
69588;SDS011;56792;50.644;17.984;2023-12-20T04:18:13;7.50;;;5.10;;
69588;SDS011;56792;50.644;17.984;2023-12-20T04:20:44;7.80;;;5.30;;
69588;SDS011;56792;50.644;17.984;2023-12-20T04:23:15;9.70;;;5.40;;
69588;SDS011;56792;50.644;17.984;2023-12-20T04:25:46;7.80;;;4.90;;
69588;SDS011;56792;50.644;17.984;2023-12-20T04:28:17;8.20;;;5.50;;
69588;SDS011;56792;50.644;17.984;2023-12-20T04:30:48;9.40;;;5.60;;
69588;SDS011;56792;50.644;17.984;2023-12-20T04:33:19;9.10;;;5.60;;
69588;SDS011;56792;50.644;17.984;2023-12-20T04:35:50;8.40;;;4.80;;
69588;SDS011;56792;50.644;17.984;2023-12-20T04:38:22;8.20;;;5.00;;
69588;SDS011;56792;50.644;17.984;2023-12-20T04:40:52;8.00;;;4.90;;
69588;SDS011;56792;50.644;17.984;2023-12-20T04:43:23;7.70;;;5.10;;
69588;SDS011;56792;50.644;17.984;2023-12-20T04:45:54;8.40;;;5.90;;
69588;SDS011;56792;50.644;17.984;2023-12-20T04:48:25;9.20;;;4.60;;
69588;SDS011;56792;50.644;17.984;2023-12-20T04:50:57;9.10;;;5.50;;
69588;SDS011;56792;50.644;17.984;2023-12-20T04:53:28;7.40;;;5.40;;
69588;SDS011;56792;50.644;17.984;2023-12-20T04:55:59;8.00;;;4.70;;
69588;SDS011;56792;50.644;17.984;2023-12-20T04:58:29;8.80;;;5.20;;
69588;SDS011;56792;50.644;17.984;2023-12-20T05:01:01;6.50;;;5.20;;
69588;SDS011;56792;50.644;17.984;2023-12-20T05:03:32;6.80;;;4.30;;
69588;SDS011;56792;50.644;17.984;2023-12-20T05:06:03;8.40;;;5.50;;
69588;SDS011;56792;50.644;17.984;2023-12-20T05:08:34;7.90;;;5.00;;
69588;SDS011;56792;50.644;17.984;2023-12-20T05:11:06;8.90;;;5.80;;
69588;SDS011;56792;50.644;17.984;2023-12-20T05:13:37;8.30;;;5.10;;
69588;SDS011;56792;50.644;17.984;2023-12-20T05:16:10;8.00;;;5.60;;
69588;SDS011;56792;50.644;17.984;2023-12-20T05:18:42;8.40;;;5.80;;
69588;SDS011;56792;50.644;17.984;2023-12-20T05:21:13;7.60;;;5.50;;
69588;SDS011;56792;50.644;17.984;2023-12-20T05:23:45;7.20;;;5.10;;
69588;SDS011;56792;50.644;17.984;2023-12-20T05:26:16;6.60;;;4.20;;
69588;SDS011;56792;50.644;17.984;2023-12-20T05:28:47;7.90;;;4.80;;
69588;SDS011;56792;50.644;17.984;2023-12-20T05:31:18;8.20;;;5.60;;
69588;SDS011;56792;50.644;17.984;2023-12-20T05:33:49;10.10;;;6.10;;
69588;SDS011;56792;50.644;17.984;2023-12-20T05:36:20;7.80;;;5.30;;
69588;SDS011;56792;50.644;17.984;2023-12-20T05:38:51;7.80;;;4.90;;
69588;SDS011;56792;50.644;17.984;2023-12-20T05:41:22;7.40;;;4.80;;
69588;SDS011;56792;50.644;17.984;2023-12-20T05:43:53;7.20;;;4.90;;
69588;SDS011;56792;50.644;17.984;2023-12-20T05:46:26;6.10;;;4.40;;
69588;SDS011;56792;50.644;17.984;2023-12-20T05:48:57;9.20;;;5.30;;
69588;SDS011;56792;50.644;17.984;2023-12-20T05:51:28;7.50;;;4.90;;
69588;SDS011;56792;50.644;17.984;2023-12-20T05:53:59;7.40;;;4.70;;
69588;SDS011;56792;50.644;17.984;2023-12-20T05:56:30;8.70;;;6.50;;
69588;SDS011;56792;50.644;17.984;2023-12-20T05:59:01;7.70;;;5.80;;
69588;SDS011;56792;50.644;17.984;2023-12-20T06:01:32;9.20;;;5.90;;
69588;SDS011;56792;50.644;17.984;2023-12-20T06:04:03;7.50;;;6.20;;
69588;SDS011;56792;50.644;17.984;2023-12-20T06:06:34;7.60;;;5.70;;
69588;SDS011;56792;50.644;17.984;2023-12-20T06:09:09;8.60;;;5.90;;
69588;SDS011;56792;50.644;17.984;2023-12-20T06:11:40;7.70;;;5.80;;
69588;SDS011;56792;50.644;17.984;2023-12-20T06:14:11;9.30;;;6.50;;
69588;SDS011;56792;50.644;17.984;2023-12-20T06:16:42;7.20;;;5.50;;
69588;SDS011;56792;50.644;17.984;2023-12-20T06:19:14;7.80;;;5.50;;
69588;SDS011;56792;50.644;17.984;2023-12-20T06:21:45;8.10;;;6.00;;
69588;SDS011;56792;50.644;17.984;2023-12-20T06:24:15;7.00;;;5.80;;
69588;SDS011;56792;50.644;17.984;2023-12-20T06:26:46;6.90;;;6.00;;
69588;SDS011;56792;50.644;17.984;2023-12-20T06:29:17;6.90;;;6.20;;
69588;SDS011;56792;50.644;17.984;2023-12-20T06:31:48;7.60;;;5.80;;
69588;SDS011;56792;50.644;17.984;2023-12-20T06:34:19;7.20;;;5.90;;
69588;SDS011;56792;50.644;17.984;2023-12-20T06:36:51;8.00;;;5.80;;
69588;SDS011;56792;50.644;17.984;2023-12-20T06:39:22;7.00;;;6.10;;
69588;SDS011;56792;50.644;17.984;2023-12-20T06:41:53;7.40;;;5.80;;
69588;SDS011;56792;50.644;17.984;2023-12-20T06:44:24;6.60;;;5.40;;
69588;SDS011;56792;50.644;17.984;2023-12-20T06:46:55;8.40;;;6.10;;
69588;SDS011;56792;50.644;17.984;2023-12-20T06:49:26;6.30;;;5.70;;
69588;SDS011;56792;50.644;17.984;2023-12-20T06:51:57;6.20;;;5.00;;
69588;SDS011;56792;50.644;17.984;2023-12-20T06:54:28;6.80;;;5.30;;
69588;SDS011;56792;50.644;17.984;2023-12-20T06:56:59;7.20;;;5.80;;
69588;SDS011;56792;50.644;17.984;2023-12-20T06:59:31;8.60;;;5.70;;
69588;SDS011;56792;50.644;17.984;2023-12-20T07:02:02;6.60;;;5.30;;
69588;SDS011;56792;50.644;17.984;2023-12-20T07:04:33;8.10;;;6.20;;
69588;SDS011;56792;50.644;17.984;2023-12-20T07:07:08;7.00;;;4.80;;
69588;SDS011;56792;50.644;17.984;2023-12-20T07:09:39;7.80;;;5.90;;
69588;SDS011;56792;50.644;17.984;2023-12-20T07:12:11;7.40;;;5.80;;
69588;SDS011;56792;50.644;17.984;2023-12-20T07:14:42;7.00;;;5.40;;
69588;SDS011;56792;50.644;17.984;2023-12-20T07:17:13;7.10;;;6.40;;
69588;SDS011;56792;50.644;17.984;2023-12-20T07:19:44;9.30;;;6.10;;
69588;SDS011;56792;50.644;17.984;2023-12-20T07:22:15;7.60;;;5.90;;
69588;SDS011;56792;50.644;17.984;2023-12-20T07:24:46;7.20;;;5.00;;
69588;SDS011;56792;50.644;17.984;2023-12-20T07:27:17;7.80;;;5.30;;
69588;SDS011;56792;50.644;17.984;2023-12-20T07:29:48;7.30;;;5.40;;
69588;SDS011;56792;50.644;17.984;2023-12-20T07:32:20;7.80;;;5.10;;
69588;SDS011;56792;50.644;17.984;2023-12-20T07:34:51;8.60;;;5.90;;
69588;SDS011;56792;50.644;17.984;2023-12-20T07:37:22;7.50;;;5.10;;
69588;SDS011;56792;50.644;17.984;2023-12-20T07:39:54;7.60;;;5.00;;
69588;SDS011;56792;50.644;17.984;2023-12-20T07:42:25;8.90;;;6.20;;
69588;SDS011;56792;50.644;17.984;2023-12-20T07:44:56;9.10;;;5.20;;
69588;SDS011;56792;50.644;17.984;2023-12-20T07:47:27;7.70;;;5.00;;
69588;SDS011;56792;50.644;17.984;2023-12-20T07:49:58;8.50;;;5.20;;
69588;SDS011;56792;50.644;17.984;2023-12-20T07:52:28;8.80;;;5.20;;
69588;SDS011;56792;50.644;17.984;2023-12-20T07:55:00;7.40;;;4.90;;
69588;SDS011;56792;50.644;17.984;2023-12-20T07:57:32;7.50;;;4.80;;
69588;SDS011;56792;50.644;17.984;2023-12-20T08:00:04;6.80;;;5.00;;
69588;SDS011;56792;50.644;17.984;2023-12-20T08:02:36;6.60;;;4.70;;
69588;SDS011;56792;50.644;17.984;2023-12-20T08:05:08;7.40;;;5.30;;
69588;SDS011;56792;50.644;17.984;2023-12-20T08:07:39;6.20;;;5.20;;
69588;SDS011;56792;50.644;17.984;2023-12-20T08:10:10;6.70;;;4.70;;
69588;SDS011;56792;50.644;17.984;2023-12-20T08:12:41;7.60;;;4.70;;
69588;SDS011;56792;50.644;17.984;2023-12-20T08:15:12;6.30;;;5.10;;
69588;SDS011;56792;50.644;17.984;2023-12-20T08:17:43;5.40;;;4.30;;
69588;SDS011;56792;50.644;17.984;2023-12-20T08:20:15;6.90;;;4.90;;
69588;SDS011;56792;50.644;17.984;2023-12-20T08:22:46;7.50;;;4.60;;
69588;SDS011;56792;50.644;17.984;2023-12-20T08:25:17;6.90;;;5.20;;
69588;SDS011;56792;50.644;17.984;2023-12-20T08:27:48;5.60;;;4.50;;
69588;SDS011;56792;50.644;17.984;2023-12-20T08:30:19;5.90;;;4.30;;
69588;SDS011;56792;50.644;17.984;2023-12-20T08:32:50;6.50;;;5.20;;
69588;SDS011;56792;50.644;17.984;2023-12-20T08:35:21;6.50;;;4.30;;
69588;SDS011;56792;50.644;17.984;2023-12-20T08:37:52;6.60;;;4.60;;
69588;SDS011;56792;50.644;17.984;2023-12-20T08:40:24;6.20;;;4.30;;
69588;SDS011;56792;50.644;17.984;2023-12-20T08:42:55;6.00;;;4.20;;
69588;SDS011;56792;50.644;17.984;2023-12-20T08:45:26;6.40;;;4.90;;
69588;SDS011;56792;50.644;17.984;2023-12-20T08:47:57;5.50;;;4.00;;
69588;SDS011;56792;50.644;17.984;2023-12-20T08:50:29;7.00;;;4.40;;
69588;SDS011;56792;50.644;17.984;2023-12-20T08:53:00;5.70;;;4.50;;
69588;SDS011;56792;50.644;17.984;2023-12-20T08:55:31;6.00;;;4.20;;
69588;SDS011;56792;50.644;17.984;2023-12-20T08:58:02;5.90;;;4.80;;
69588;SDS011;56792;50.644;17.984;2023-12-20T09:00:35;5.40;;;4.00;;
69588;SDS011;56792;50.644;17.984;2023-12-20T09:03:07;6.60;;;4.40;;
69588;SDS011;56792;50.644;17.984;2023-12-20T09:05:38;4.90;;;4.10;;
69588;SDS011;56792;50.644;17.984;2023-12-20T09:08:09;5.00;;;3.90;;
69588;SDS011;56792;50.644;17.984;2023-12-20T09:10:40;6.80;;;4.70;;
69588;SDS011;56792;50.644;17.984;2023-12-20T09:13:12;5.20;;;3.80;;
69588;SDS011;56792;50.644;17.984;2023-12-20T09:15:43;6.30;;;4.10;;
69588;SDS011;56792;50.644;17.984;2023-12-20T09:18:14;5.70;;;4.10;;
69588;SDS011;56792;50.644;17.984;2023-12-20T09:20:46;5.40;;;4.10;;
69588;SDS011;56792;50.644;17.984;2023-12-20T09:23:17;5.90;;;4.50;;
69588;SDS011;56792;50.644;17.984;2023-12-20T09:25:48;4.80;;;3.90;;
69588;SDS011;56792;50.644;17.984;2023-12-20T09:28:19;4.90;;;4.00;;
69588;SDS011;56792;50.644;17.984;2023-12-20T09:30:50;4.90;;;4.00;;
69588;SDS011;56792;50.644;17.984;2023-12-20T09:33:21;5.00;;;4.10;;
69588;SDS011;56792;50.644;17.984;2023-12-20T09:35:53;9.70;;;5.70;;
69588;SDS011;56792;50.644;17.984;2023-12-20T09:38:24;6.50;;;4.90;;
69588;SDS011;56792;50.644;17.984;2023-12-20T09:40:55;7.30;;;5.20;;
69588;SDS011;56792;50.644;17.984;2023-12-20T09:43:26;6.20;;;4.90;;
69588;SDS011;56792;50.644;17.984;2023-12-20T09:46:01;5.70;;;4.10;;
69588;SDS011;56792;50.644;17.984;2023-12-20T09:48:37;6.60;;;5.30;;
69588;SDS011;56792;50.644;17.984;2023-12-20T09:51:10;6.20;;;4.60;;
69588;SDS011;56792;50.644;17.984;2023-12-20T09:53:42;5.70;;;4.60;;
69588;SDS011;56792;50.644;17.984;2023-12-20T09:56:15;6.90;;;4.70;;
69588;SDS011;56792;50.644;17.984;2023-12-20T09:58:46;5.80;;;4.50;;
69588;SDS011;56792;50.644;17.984;2023-12-20T10:01:18;6.80;;;4.90;;
69588;SDS011;56792;50.644;17.984;2023-12-20T10:03:52;7.40;;;5.20;;
69588;SDS011;56792;50.644;17.984;2023-12-20T10:06:26;7.00;;;4.60;;
69588;SDS011;56792;50.644;17.984;2023-12-20T10:08:57;9.50;;;6.20;;
69588;SDS011;56792;50.644;17.984;2023-12-20T10:11:29;8.60;;;5.90;;
69588;SDS011;56792;50.644;17.984;2023-12-20T10:14:01;6.10;;;5.00;;
69588;SDS011;56792;50.644;17.984;2023-12-20T10:16:33;7.20;;;4.80;;
69588;SDS011;56792;50.644;17.984;2023-12-20T10:19:04;6.80;;;4.60;;
69588;SDS011;56792;50.644;17.984;2023-12-20T10:21:36;7.30;;;5.20;;
69588;SDS011;56792;50.644;17.984;2023-12-20T10:24:07;7.10;;;5.40;;
69588;SDS011;56792;50.644;17.984;2023-12-20T10:26:38;6.40;;;5.20;;
69588;SDS011;56792;50.644;17.984;2023-12-20T10:29:09;7.30;;;4.70;;
69588;SDS011;56792;50.644;17.984;2023-12-20T10:31:41;10.40;;;4.90;;
69588;SDS011;56792;50.644;17.984;2023-12-20T10:34:13;14.10;;;6.60;;
69588;SDS011;56792;50.644;17.984;2023-12-20T10:36:45;22.20;;;8.70;;
69588;SDS011;56792;50.644;17.984;2023-12-20T10:39:17;13.60;;;6.10;;
69588;SDS011;56792;50.644;17.984;2023-12-20T10:41:49;9.00;;;5.40;;
69588;SDS011;56792;50.644;17.984;2023-12-20T10:44:20;13.70;;;6.60;;
69588;SDS011;56792;50.644;17.984;2023-12-20T10:46:51;17.40;;;7.50;;
69588;SDS011;56792;50.644;17.984;2023-12-20T10:49:27;16.40;;;6.90;;
69588;SDS011;56792;50.644;17.984;2023-12-20T10:52:01;9.40;;;6.00;;
69588;SDS011;56792;50.644;17.984;2023-12-20T10:54:35;10.00;;;5.70;;
69588;SDS011;56792;50.644;17.984;2023-12-20T10:57:08;8.80;;;5.30;;
69588;SDS011;56792;50.644;17.984;2023-12-20T10:59:39;9.70;;;6.40;;
69588;SDS011;56792;50.644;17.984;2023-12-20T11:02:10;12.70;;;6.80;;
69588;SDS011;56792;50.644;17.984;2023-12-20T11:04:47;11.70;;;7.80;;
69588;SDS011;56792;50.644;17.984;2023-12-20T11:07:28;11.70;;;6.80;;
69588;SDS011;56792;50.644;17.984;2023-12-20T11:10:13;9.10;;;6.50;;
69588;SDS011;56792;50.644;17.984;2023-12-20T11:12:51;7.70;;;4.90;;
69588;SDS011;56792;50.644;17.984;2023-12-20T11:15:25;6.00;;;4.50;;
69588;SDS011;56792;50.644;17.984;2023-12-20T11:17:58;6.60;;;4.80;;
69588;SDS011;56792;50.644;17.984;2023-12-20T11:20:38;8.70;;;4.80;;
69588;SDS011;56792;50.644;17.984;2023-12-20T11:23:10;8.30;;;4.40;;
69588;SDS011;56792;50.644;17.984;2023-12-20T11:25:53;6.70;;;4.30;;
69588;SDS011;56792;50.644;17.984;2023-12-20T11:28:27;6.60;;;4.50;;
69588;SDS011;56792;50.644;17.984;2023-12-20T11:31:00;5.70;;;4.40;;
69588;SDS011;56792;50.644;17.984;2023-12-20T11:33:36;5.90;;;3.60;;
69588;SDS011;56792;50.644;17.984;2023-12-20T11:36:14;6.70;;;3.90;;
69588;SDS011;56792;50.644;17.984;2023-12-20T11:38:58;7.70;;;5.30;;
69588;SDS011;56792;50.644;17.984;2023-12-20T11:41:34;7.00;;;4.80;;
69588;SDS011;56792;50.644;17.984;2023-12-20T11:44:07;7.80;;;5.40;;
69588;SDS011;56792;50.644;17.984;2023-12-20T11:46:40;9.60;;;5.90;;
69588;SDS011;56792;50.644;17.984;2023-12-20T11:49:11;8.40;;;4.90;;
69588;SDS011;56792;50.644;17.984;2023-12-20T11:51:43;8.60;;;4.60;;
69588;SDS011;56792;50.644;17.984;2023-12-20T11:54:15;7.70;;;4.30;;
69588;SDS011;56792;50.644;17.984;2023-12-20T11:56:47;7.60;;;5.10;;
69588;SDS011;56792;50.644;17.984;2023-12-20T11:59:18;7.10;;;4.50;;
69588;SDS011;56792;50.644;17.984;2023-12-20T12:01:52;7.20;;;4.20;;
69588;SDS011;56792;50.644;17.984;2023-12-20T12:04:28;7.80;;;4.70;;
69588;SDS011;56792;50.644;17.984;2023-12-20T12:06:59;7.80;;;4.80;;
69588;SDS011;56792;50.644;17.984;2023-12-20T12:09:31;8.70;;;4.70;;
69588;SDS011;56792;50.644;17.984;2023-12-20T12:12:02;6.80;;;5.10;;
69588;SDS011;56792;50.644;17.984;2023-12-20T12:14:34;9.60;;;5.00;;
69588;SDS011;56792;50.644;17.984;2023-12-20T12:17:06;6.90;;;4.40;;
69588;SDS011;56792;50.644;17.984;2023-12-20T12:19:41;14.70;;;6.30;;
69588;SDS011;56792;50.644;17.984;2023-12-20T12:22:13;8.50;;;5.20;;
69588;SDS011;56792;50.644;17.984;2023-12-20T12:24:48;8.40;;;5.00;;
69588;SDS011;56792;50.644;17.984;2023-12-20T12:27:19;7.90;;;4.50;;
69588;SDS011;56792;50.644;17.984;2023-12-20T12:30:06;7.20;;;4.10;;
69588;SDS011;56792;50.644;17.984;2023-12-20T12:32:41;6.80;;;4.10;;
69588;SDS011;56792;50.644;17.984;2023-12-20T12:35:13;6.20;;;4.10;;
69588;SDS011;56792;50.644;17.984;2023-12-20T12:37:44;9.10;;;5.50;;
69588;SDS011;56792;50.644;17.984;2023-12-20T12:40:16;6.30;;;4.10;;
69588;SDS011;56792;50.644;17.984;2023-12-20T12:42:48;8.90;;;5.00;;
69588;SDS011;56792;50.644;17.984;2023-12-20T12:45:19;6.30;;;3.50;;
69588;SDS011;56792;50.644;17.984;2023-12-20T12:47:50;9.00;;;4.80;;
69588;SDS011;56792;50.644;17.984;2023-12-20T12:50:23;6.70;;;3.90;;
69588;SDS011;56792;50.644;17.984;2023-12-20T12:52:55;6.40;;;4.20;;
69588;SDS011;56792;50.644;17.984;2023-12-20T12:55:26;6.30;;;4.30;;
69588;SDS011;56792;50.644;17.984;2023-12-20T12:57:58;6.50;;;3.50;;
69588;SDS011;56792;50.644;17.984;2023-12-20T13:00:29;7.60;;;4.60;;
69588;SDS011;56792;50.644;17.984;2023-12-20T13:03:00;11.30;;;5.90;;
69588;SDS011;56792;50.644;17.984;2023-12-20T13:05:31;14.10;;;6.60;;
69588;SDS011;56792;50.644;17.984;2023-12-20T13:08:03;11.00;;;5.10;;
69588;SDS011;56792;50.644;17.984;2023-12-20T13:10:35;14.10;;;6.50;;
69588;SDS011;56792;50.644;17.984;2023-12-20T13:13:06;13.80;;;6.60;;
69588;SDS011;56792;50.644;17.984;2023-12-20T13:15:38;11.50;;;5.50;;
69588;SDS011;56792;50.644;17.984;2023-12-20T13:18:09;8.70;;;4.70;;
69588;SDS011;56792;50.644;17.984;2023-12-20T13:20:40;11.70;;;5.90;;
69588;SDS011;56792;50.644;17.984;2023-12-20T13:23:11;8.00;;;4.80;;
69588;SDS011;56792;50.644;17.984;2023-12-20T13:25:42;9.30;;;5.10;;
69588;SDS011;56792;50.644;17.984;2023-12-20T13:28:15;24.60;;;9.00;;
69588;SDS011;56792;50.644;17.984;2023-12-20T13:30:46;13.70;;;7.50;;
69588;SDS011;56792;50.644;17.984;2023-12-20T13:33:17;11.20;;;6.20;;
69588;SDS011;56792;50.644;17.984;2023-12-20T13:35:48;8.00;;;5.20;;
69588;SDS011;56792;50.644;17.984;2023-12-20T13:38:19;13.60;;;7.10;;
69588;SDS011;56792;50.644;17.984;2023-12-20T13:40:50;9.90;;;5.70;;
69588;SDS011;56792;50.644;17.984;2023-12-20T13:43:21;9.70;;;5.50;;
69588;SDS011;56792;50.644;17.984;2023-12-20T13:45:52;8.50;;;5.20;;
69588;SDS011;56792;50.644;17.984;2023-12-20T13:48:24;6.50;;;4.50;;
69588;SDS011;56792;50.644;17.984;2023-12-20T13:50:55;9.40;;;5.80;;
69588;SDS011;56792;50.644;17.984;2023-12-20T13:53:26;10.80;;;5.50;;
69588;SDS011;56792;50.644;17.984;2023-12-20T13:55:57;9.30;;;6.40;;
69588;SDS011;56792;50.644;17.984;2023-12-20T13:58:28;6.90;;;5.10;;
69588;SDS011;56792;50.644;17.984;2023-12-20T14:00:59;8.40;;;5.80;;
69588;SDS011;56792;50.644;17.984;2023-12-20T14:03:30;6.90;;;5.30;;
69588;SDS011;56792;50.644;17.984;2023-12-20T14:06:01;8.30;;;5.70;;
69588;SDS011;56792;50.644;17.984;2023-12-20T14:08:32;7.30;;;5.50;;
69588;SDS011;56792;50.644;17.984;2023-12-20T14:11:04;7.70;;;6.20;;
69588;SDS011;56792;50.644;17.984;2023-12-20T14:13:35;7.80;;;5.70;;
69588;SDS011;56792;50.644;17.984;2023-12-20T14:16:06;11.20;;;6.80;;
69588;SDS011;56792;50.644;17.984;2023-12-20T14:18:39;9.70;;;6.70;;
69588;SDS011;56792;50.644;17.984;2023-12-20T14:21:10;11.60;;;6.20;;
69588;SDS011;56792;50.644;17.984;2023-12-20T14:23:41;10.50;;;6.60;;
69588;SDS011;56792;50.644;17.984;2023-12-20T14:26:13;9.50;;;5.60;;
69588;SDS011;56792;50.644;17.984;2023-12-20T14:28:44;6.50;;;5.10;;
69588;SDS011;56792;50.644;17.984;2023-12-20T14:31:15;7.70;;;4.80;;
69588;SDS011;56792;50.644;17.984;2023-12-20T14:33:46;6.70;;;4.30;;
69588;SDS011;56792;50.644;17.984;2023-12-20T14:36:18;6.90;;;4.40;;
69588;SDS011;56792;50.644;17.984;2023-12-20T14:38:51;5.40;;;4.10;;
69588;SDS011;56792;50.644;17.984;2023-12-20T14:41:22;6.80;;;4.50;;
69588;SDS011;56792;50.644;17.984;2023-12-20T14:43:53;9.10;;;4.30;;
69588;SDS011;56792;50.644;17.984;2023-12-20T14:46:24;7.90;;;4.40;;
69588;SDS011;56792;50.644;17.984;2023-12-20T14:48:56;8.40;;;4.70;;
69588;SDS011;56792;50.644;17.984;2023-12-20T14:51:29;7.50;;;4.20;;
69588;SDS011;56792;50.644;17.984;2023-12-20T14:54:01;6.80;;;3.60;;
69588;SDS011;56792;50.644;17.984;2023-12-20T14:56:32;7.00;;;4.60;;